Time;durP1;ratioP1;P1;durP2;ratioP2;P2;SDS_P1;SDS_P2;PMS_P1;PMS_P2;Temp;Humidity;BMP_temperature;BMP_pressure;BME280_temperature;BME280_humidity;BME280_pressure;Samples;Min_cycle;Max_cycle;Signal;HPM_P1;HPM_P2
2021/07/23 00:00:58;;;;;;;;;24.25;22.25;;;;;23.38;55.33;101532.16;5074385;28;45495;-68
2021/07/23 00:03:23;;;;;;;;;24.75;23.50;;;;;23.34;55.62;101530.72;5075111;28;46930;-68
2021/07/23 00:05:49;;;;;;;;;27.00;21.25;;;;;23.29;55.63;101530.25;5074975;28;60113;-69
2021/07/23 00:08:15;;;;;;;;;23.00;19.25;;;;;23.30;55.57;101533.78;5073011;28;50622;-69
2021/07/23 00:10:40;;;;;;;;;27.00;23.50;;;;;23.25;55.00;101530.66;5074402;28;45424;-69
2021/07/23 00:13:05;;;;;;;;;22.50;19.00;;;;;23.21;56.48;101529.19;5073222;27;45738;-68
2021/07/23 00:15:31;;;;;;;;;22.75;19.75;;;;;23.17;56.49;101524.06;5074275;28;50113;-68
2021/07/23 00:17:56;;;;;;;;;21.00;17.75;;;;;23.14;56.53;101527.03;5074365;28;46442;-69
2021/07/23 00:20:22;;;;;;;;;23.75;20.00;;;;;23.11;56.21;101532.63;5074716;27;45426;-68
2021/07/23 00:22:47;;;;;;;;;24.75;21.00;;;;;23.06;56.97;101524.13;5074359;28;45506;-68
2021/07/23 00:25:12;;;;;;;;;20.00;19.75;;;;;23.02;56.49;101527.19;5074038;28;47183;-68
2021/07/23 00:27:38;;;;;;;;;17.25;16.50;;;;;22.95;56.29;101520.63;5074505;28;46567;-69
2021/07/23 00:30:05;;;;;;;;;20.25;17.25;;;;;22.90;56.44;101515.66;5075734;27;45425;-69
2021/07/23 00:32:30;;;;;;;;;17.25;14.50;;;;;22.86;56.97;101514.16;5072710;27;45593;-69
2021/07/23 00:34:55;;;;;;;;;19.50;16.50;;;;;22.79;57.74;101512.97;5074061;28;50279;-68
2021/07/23 00:37:21;;;;;;;;;18.00;17.50;;;;;22.75;57.69;101506.16;5073722;27;45585;-68
2021/07/23 00:39:46;;;;;;;;;18.00;16.00;;;;;22.72;57.68;101509.09;5073958;28;45481;-69
2021/07/23 00:42:11;;;;;;;;;20.75;19.25;;;;;22.69;57.53;101509.34;5075931;27;48776;-68
2021/07/23 00:44:38;;;;;;;;;17.50;15.75;;;;;22.64;57.85;101505.22;5073639;28;45807;-69
2021/07/23 00:47:04;;;;;;;;;17.50;15.50;;;;;22.63;58.32;101500.84;5074195;27;45530;-69
2021/07/23 00:49:30;;;;;;;;;16.25;13.75;;;;;22.60;58.23;101501.09;5072882;27;45298;-69
2021/07/23 00:51:55;;;;;;;;;14.50;13.75;;;;;22.57;58.52;101498.66;5072621;27;45381;-69
2021/07/23 00:54:21;;;;;;;;;19.75;16.50;;;;;22.50;58.08;101485.88;5075635;28;45502;-68
2021/07/23 00:56:47;;;;;;;;;14.75;13.25;;;;;22.50;57.79;101494.78;5074052;28;46467;-69
2021/07/23 00:59:14;;;;;;;;;13.50;12.50;;;;;22.45;58.79;101488.94;5073444;28;45486;-69
2021/07/23 01:01:41;;;;;;;;;14.00;13.50;;;;;22.43;59.12;101496.25;5073856;27;45378;-69
2021/07/23 01:04:06;;;;;;;;;14.00;12.75;;;;;22.37;59.01;101486.88;5073957;27;45414;-68
2021/07/23 01:06:34;;;;;;;;;13.75;13.00;;;;;22.33;59.13;101477.38;5073523;27;46332;-69
2021/07/23 01:09:00;;;;;;;;;15.50;12.50;;;;;22.29;58.89;101475.06;5075420;27;45639;-69
2021/07/23 01:11:25;;;;;;;;;16.25;13.75;;;;;22.29;59.25;101477.75;5072772;27;45437;-69
2021/07/23 01:13:51;;;;;;;;;16.00;15.50;;;;;22.25;59.45;101471.81;5073162;27;45388;-69
2021/07/23 01:16:16;;;;;;;;;19.50;16.50;;;;;22.22;59.18;101469.38;5073802;27;45459;-68
2021/07/23 01:18:42;;;;;;;;;13.25;13.25;;;;;22.20;59.67;101473.16;5057626;28;45533;-69
2021/07/23 01:21:08;;;;;;;;;19.00;14.00;;;;;22.15;59.46;101465.50;5075449;28;45435;-69
2021/07/23 01:23:34;;;;;;;;;18.00;14.50;;;;;22.09;59.92;101469.47;5073578;27;45557;-68
2021/07/23 01:26:04;;;;;;;;;15.50;15.50;;;;;22.08;59.23;101473.13;5073306;27;45583;-69
2021/07/23 01:28:32;;;;;;;;;14.50;13.00;;;;;22.07;59.73;101467.88;5072857;27;45306;-69
2021/07/23 01:30:58;;;;;;;;;16.25;12.00;;;;;22.04;60.29;101471.66;5072135;27;45509;-69
2021/07/23 01:33:24;;;;;;;;;17.25;13.50;;;;;21.99;58.92;101471.19;5071570;28;45669;-69
2021/07/23 01:35:51;;;;;;;;;17.50;15.25;;;;;21.94;59.42;101459.16;5072853;27;45347;-69
2021/07/23 01:38:17;;;;;;;;;16.50;14.50;;;;;21.93;59.59;101477.03;5073291;27;45437;-68
2021/07/23 01:40:46;;;;;;;;;17.00;13.75;;;;;21.89;59.39;101465.72;5073186;27;45426;-69
2021/07/23 01:43:14;;;;;;;;;15.50;13.00;;;;;21.84;60.22;101456.34;5073273;27;45445;-69
2021/07/23 01:45:39;;;;;;;;;16.50;15.50;;;;;21.82;60.16;101458.25;5072880;27;45631;-68
2021/07/23 01:48:05;;;;;;;;;17.50;12.50;;;;;21.81;59.99;101459.25;5074661;28;45577;-68
2021/07/23 01:50:30;;;;;;;;;15.50;14.50;;;;;21.80;60.49;101465.56;5071819;27;45642;-69
2021/07/23 01:52:55;;;;;;;;;13.00;12.50;;;;;21.73;60.05;101454.50;5073032;28;46425;-68
2021/07/23 01:55:21;;;;;;;;;16.75;12.75;;;;;21.72;60.69;101457.31;5072417;28;47448;-69
2021/07/23 01:57:46;;;;;;;;;13.75;13.00;;;;;21.68;60.56;101445.16;5072389;28;64528;-68
2021/07/23 02:00:12;;;;;;;;;18.50;15.75;;;;;21.66;60.86;101452.41;5091376;27;45299;-68
2021/07/23 02:02:37;;;;;;;;;18.25;15.25;;;;;21.61;61.30;101458.13;5072381;28;45659;-69
2021/07/23 02:05:04;;;;;;;;;18.00;15.50;;;;;21.57;59.79;101446.84;5072877;27;46177;-68
2021/07/23 02:07:29;;;;;;;;;15.75;14.50;;;;;21.53;61.05;101448.03;5072241;27;45307;-68
2021/07/23 02:09:55;;;;;;;;;16.25;13.00;;;;;21.52;61.12;101451.69;5073640;27;45219;-69
2021/07/23 02:12:20;;;;;;;;;17.50;13.75;;;;;21.50;60.97;101450.09;5078235;27;45415;-68
2021/07/23 02:14:46;;;;;;;;;15.75;15.25;;;;;21.47;60.73;101451.19;5076745;27;46644;-68
2021/07/23 02:17:13;;;;;;;;;18.25;14.00;;;;;21.45;61.39;101447.78;5076107;27;47103;-68
2021/07/23 02:19:39;;;;;;;;;17.75;16.00;;;;;21.41;61.82;101440.97;5076382;28;45367;-68
2021/07/23 02:22:05;;;;;;;;;19.25;16.25;;;;;21.43;61.92;101448.88;5075788;28;45561;-68
2021/07/23 02:24:30;;;;;;;;;17.00;14.00;;;;;21.41;61.64;101449.00;5091435;27;47232;-68
2021/07/23 02:26:55;;;;;;;;;15.75;14.25;;;;;21.40;61.62;101452.63;5077482;28;58928;-68
2021/07/23 02:29:21;;;;;;;;;17.00;14.75;;;;;21.36;61.68;101444.00;5074968;27;45558;-68
2021/07/23 02:31:46;;;;;;;;;17.50;15.00;;;;;21.38;62.09;101453.72;5075860;28;50113;-68
2021/07/23 02:34:11;;;;;;;;;16.50;11.75;;;;;21.35;61.76;101444.09;5075682;27;51445;-68
2021/07/23 02:36:37;;;;;;;;;19.25;16.50;;;;;21.32;61.84;101444.34;5075573;27;57862;-68
2021/07/23 02:39:03;;;;;;;;;17.00;15.50;;;;;21.31;61.72;101443.50;5078038;27;45416;-68
2021/07/23 02:41:28;;;;;;;;;24.75;17.25;;;;;21.29;62.11;101439.19;5076023;28;45527;-68
2021/07/23 02:43:54;;;;;;;;;21.00;15.75;;;;;21.29;62.73;101448.06;5075626;28;45474;-68
2021/07/23 02:46:19;;;;;;;;;17.25;16.00;;;;;21.30;62.55;101443.63;5075793;28;45444;-68
2021/07/23 02:48:44;;;;;;;;;17.75;17.50;;;;;21.30;62.28;101447.16;5074677;28;45492;-68
2021/07/23 02:51:10;;;;;;;;;19.25;17.00;;;;;21.25;62.04;101429.72;5093276;27;46913;-68
2021/07/23 02:53:36;;;;;;;;;21.50;18.00;;;;;21.25;62.80;101435.09;5073865;27;45675;-68
2021/07/23 02:56:01;;;;;;;;;18.00;17.50;;;;;21.24;62.49;101431.53;5071682;28;45562;-68
2021/07/23 02:58:26;;;;;;;;;22.75;17.25;;;;;21.14;62.48;101419.84;5075938;27;45329;-68
2021/07/23 03:00:51;;;;;;;;;16.75;16.25;;;;;21.23;62.42;101428.97;5075334;27;45477;-68
2021/07/23 03:03:17;;;;;;;;;17.50;16.00;;;;;21.20;62.58;101416.72;5075968;28;60422;-68
2021/07/23 03:05:42;;;;;;;;;17.25;16.25;;;;;21.19;62.92;101417.66;5074555;28;46572;-68
2021/07/23 03:08:09;;;;;;;;;22.50;19.75;;;;;21.10;62.78;101403.19;5075206;27;45431;-68
2021/07/23 03:10:34;;;;;;;;;17.25;15.00;;;;;21.16;63.27;101417.06;5075479;27;45627;-68
2021/07/23 03:12:59;;;;;;;;;19.25;17.75;;;;;21.16;62.73;101419.75;5075652;27;46451;-68
2021/07/23 03:15:25;;;;;;;;;20.00;17.25;;;;;21.08;62.87;101412.28;5075882;28;61853;-68
2021/07/23 03:17:50;;;;;;;;;20.25;16.00;;;;;21.11;63.32;101415.59;5076907;28;45433;-69
2021/07/23 03:20:15;;;;;;;;;17.75;15.25;;;;;21.08;63.25;101413.13;5070526;28;45533;-68
2021/07/23 03:22:41;;;;;;;;;21.75;14.75;;;;;21.08;63.66;101423.84;5074299;27;45709;-68
2021/07/23 03:25:07;;;;;;;;;19.00;18.25;;;;;21.07;63.87;101423.97;5075291;27;45419;-68
2021/07/23 03:27:32;;;;;;;;;20.00;17.50;;;;;21.05;63.32;101420.56;5075508;27;45350;-68
2021/07/23 03:29:57;;;;;;;;;19.00;17.25;;;;;21.04;63.67;101422.38;5075428;28;45444;-68
2021/07/23 03:32:22;;;;;;;;;21.00;17.00;;;;;21.00;63.98;101410.22;5073850;28;45527;-68
2021/07/23 03:34:48;;;;;;;;;17.75;16.00;;;;;21.00;63.73;101412.88;5074359;28;51996;-68
2021/07/23 03:37:13;;;;;;;;;19.25;18.75;;;;;20.98;63.50;101405.94;5074978;27;45527;-68
2021/07/23 03:39:38;;;;;;;;;19.50;16.25;;;;;20.97;63.51;101417.59;5075104;27;45330;-68
2021/07/23 03:42:04;;;;;;;;;18.75;16.75;;;;;20.92;63.97;101419.78;5076894;27;45534;-68
2021/07/23 03:44:29;;;;;;;;;16.75;15.50;;;;;20.91;64.17;101415.41;5074737;27;45604;-68
2021/07/23 03:46:54;;;;;;;;;21.00;16.00;;;;;20.89;64.02;101414.69;5073590;27;45367;-68
2021/07/23 03:49:20;;;;;;;;;19.25;17.75;;;;;20.87;64.56;101409.44;5075243;27;45436;-68
2021/07/23 03:51:46;;;;;;;;;20.00;16.00;;;;;20.85;64.47;101408.69;5074499;27;46106;-68
2021/07/23 03:54:11;;;;;;;;;18.00;17.00;;;;;20.83;63.91;101399.97;5092364;27;45368;-68
2021/07/23 03:56:37;;;;;;;;;20.00;17.50;;;;;20.80;64.50;101387.69;5072949;28;45511;-67
2021/07/23 03:59:02;;;;;;;;;15.75;13.50;;;;;20.78;64.57;101381.63;5074776;28;45522;-67
2021/07/23 04:01:27;;;;;;;;;25.00;18.25;;;;;20.74;65.09;101368.59;5074316;27;46010;-67
2021/07/23 04:03:53;;;;;;;;;18.25;17.75;;;;;20.73;64.96;101366.91;5073356;28;63059;-67
2021/07/23 04:06:18;;;;;;;;;22.50;20.25;;;;;20.70;64.93;101362.63;5075460;28;49135;-68
2021/07/23 04:08:44;;;;;;;;;23.25;18.25;;;;;20.66;64.56;101361.16;5073575;27;45464;-67
2021/07/23 04:11:14;;;;;;;;;21.50;20.75;;;;;20.63;65.00;101356.06;5073012;28;45528;-68
2021/07/23 04:13:40;;;;;;;;;26.00;18.75;;;;;20.65;64.57;101354.09;5074316;27;45679;-68
2021/07/23 04:16:05;;;;;;;;;24.00;19.25;;;;;20.62;64.44;101354.34;5074599;27;45529;-67
2021/07/23 04:18:30;;;;;;;;;20.25;18.50;;;;;20.57;65.02;101348.50;5074928;27;45310;-68
2021/07/23 04:20:56;;;;;;;;;21.75;18.75;;;;;20.55;65.35;101347.75;5076022;27;45607;-67
2021/07/23 04:23:21;;;;;;;;;25.75;17.50;;;;;20.56;65.64;101357.47;5074062;28;45473;-67
2021/07/23 04:25:46;;;;;;;;;20.00;19.25;;;;;20.57;65.09;101362.72;5072548;27;57347;-67
2021/07/23 04:28:12;;;;;;;;;23.50;19.75;;;;;20.56;66.03;101355.63;5073860;28;55107;-67
2021/07/23 04:30:37;;;;;;;;;20.50;20.25;;;;;20.55;65.55;101359.28;5074935;28;46934;-68
2021/07/23 04:33:02;;;;;;;;;21.25;19.75;;;;;20.52;65.10;101348.00;5075442;27;45460;-67
2021/07/23 04:35:28;;;;;;;;;24.25;20.25;;;;;20.54;65.87;101349.56;5073627;27;45624;-68
2021/07/23 04:37:53;;;;;;;;;27.00;19.25;;;;;20.54;65.36;101344.25;5073976;28;45310;-68
2021/07/23 04:40:18;;;;;;;;;22.75;21.00;;;;;20.57;65.22;101346.69;5074048;28;58586;-67
2021/07/23 04:42:44;;;;;;;;;21.75;19.00;;;;;20.57;64.76;101341.34;5074168;28;45371;-68
2021/07/23 04:45:10;;;;;;;;;24.75;20.00;;;;;20.59;64.82;101352.75;5076038;27;45432;-67
2021/07/23 04:47:35;;;;;;;;;21.00;19.00;;;;;20.58;65.34;101353.72;5072217;27;45415;-68
2021/07/23 04:50:01;;;;;;;;;22.75;20.25;;;;;20.54;65.68;101346.91;5071418;28;64050;-68
2021/07/23 04:52:27;;;;;;;;;21.00;18.25;;;;;20.57;64.90;101346.69;5073691;27;45366;-68
2021/07/23 04:54:52;;;;;;;;;22.50;19.50;;;;;20.57;65.79;101346.69;5073938;27;45565;-67
2021/07/23 04:57:25;;;;;;;;;23.75;22.50;;;;;20.57;65.81;101349.34;5074759;27;54251;-67
2021/07/23 04:59:50;;;;;;;;;22.25;20.50;;;;;20.61;65.85;101349.97;5075237;28;45687;-67
2021/07/23 05:02:15;;;;;;;;;23.25;21.25;;;;;20.65;65.64;101354.09;5073543;28;57084;-67
2021/07/23 05:04:41;;;;;;;;;21.50;21.25;;;;;20.68;65.94;101353.03;5071421;27;58580;-69
2021/07/23 05:07:06;;;;;;;;;27.75;22.50;;;;;20.74;65.42;101355.25;5073971;27;45449;-67
2021/07/23 05:09:31;;;;;;;;;23.75;20.50;;;;;20.75;65.46;101356.94;5073383;27;51524;-68
2021/07/23 05:11:57;;;;;;;;;24.00;20.50;;;;;20.80;65.44;101358.28;5075747;27;50751;-67
2021/07/23 05:14:22;;;;;;;;;18.50;17.25;;;;;20.85;65.08;101355.28;5073763;27;45481;-68
2021/07/23 05:16:49;;;;;;;;;22.50;19.25;;;;;20.92;65.14;101361.00;5073332;27;45477;-69
2021/07/23 05:19:15;;;;;;;;;23.00;20.00;;;;;20.95;64.71;101352.75;5073245;28;46473;-68
2021/07/23 05:21:42;;;;;;;;;20.25;19.25;;;;;20.98;64.78;101348.00;5073616;27;45597;-67
2021/07/23 05:24:08;;;;;;;;;23.75;20.75;;;;;21.05;65.10;101353.75;5075531;27;45388;-67
2021/07/23 05:26:35;;;;;;;;;19.75;16.25;;;;;21.09;65.24;101349.88;5071750;27;45631;-68
2021/07/23 05:29:05;;;;;;;;;19.00;16.50;;;;;21.09;64.79;101348.06;5073676;27;46149;-67
2021/07/23 05:31:31;;;;;;;;;21.75;17.75;;;;;21.15;65.04;101340.53;5072862;27;45258;-69
2021/07/23 05:34:01;;;;;;;;;23.50;20.00;;;;;21.16;64.65;101342.22;5073047;28;45372;-68
2021/07/23 05:36:27;;;;;;;;;23.00;18.50;;;;;21.20;64.41;101341.03;5073953;27;45358;-67
2021/07/23 05:38:52;;;;;;;;;20.50;17.75;;;;;21.28;64.10;101333.25;5074314;28;45491;-67
2021/07/23 05:41:17;;;;;;;;;22.00;19.00;;;;;21.33;63.59;101328.41;5073028;28;45414;-67
2021/07/23 05:43:43;;;;;;;;;27.25;23.50;;;;;21.37;64.32;101329.88;5071614;27;45382;-67
2021/07/23 05:46:09;;;;;;;;;26.50;21.50;;;;;21.46;63.89;101345.19;5073237;27;45528;-67
2021/07/23 05:48:38;;;;;;;;;20.75;18.75;;;;;21.51;63.40;101339.50;5072365;27;45488;-67
2021/07/23 05:51:04;;;;;;;;;30.00;23.25;;;;;21.59;63.57;101340.56;5075164;27;45773;-67
2021/07/23 05:53:30;;;;;;;;;21.00;20.00;;;;;21.65;63.82;101341.06;5073150;27;45488;-67
2021/07/23 05:56:00;;;;;;;;;26.75;20.00;;;;;21.71;62.92;101333.38;5072644;27;45432;-67
2021/07/23 05:58:26;;;;;;;;;25.25;20.75;;;;;22.01;62.99;101326.53;5088886;27;47399;-67
2021/07/23 06:00:52;;;;;;;;;22.75;20.00;;;;;22.46;62.50;101326.41;5072659;27;45789;-67
2021/07/23 06:03:18;;;;;;;;;21.75;20.50;;;;;22.78;61.74;101323.69;5073757;27;45508;-67
2021/07/23 06:05:43;;;;;;;;;19.50;18.50;;;;;23.14;61.49;101319.72;5070813;28;57933;-68
2021/07/23 06:08:08;;;;;;;;;21.25;21.00;;;;;23.27;60.78;101322.16;5071507;28;61988;-67
2021/07/23 06:10:34;;;;;;;;;24.50;21.25;;;;;23.31;60.32;101313.72;5072639;27;48658;-66
2021/07/23 06:12:59;;;;;;;;;24.50;18.25;;;;;23.31;59.92;101307.53;5072836;27;45712;-67
2021/07/23 06:15:24;;;;;;;;;20.25;16.75;;;;;23.33;59.75;101303.69;5073068;27;51912;-66
2021/07/23 06:17:49;;;;;;;;;22.25;18.00;;;;;23.36;59.94;101299.91;5073819;28;45448;-66
2021/07/23 06:20:15;;;;;;;;;24.50;17.00;;;;;23.31;59.69;101294.94;5067324;28;63993;-67
2021/07/23 06:22:40;;;;;;;;;21.75;16.75;;;;;23.30;59.74;101297.78;5071283;27;45449;-67
2021/07/23 06:25:06;;;;;;;;;27.75;23.50;;;;;23.29;59.93;101291.56;5072720;27;45437;-67
2021/07/23 06:27:31;;;;;;;;;21.50;17.50;;;;;23.28;59.28;101295.22;5074927;27;45439;-67
2021/07/23 06:29:56;;;;;;;;;21.00;20.50;;;;;23.26;59.62;101285.63;5074015;27;50347;-67
2021/07/23 06:32:24;;;;;;;;;26.75;19.00;;;;;23.27;59.15;101293.50;5072342;27;45456;-66
2021/07/23 06:34:49;;;;;;;;;20.25;18.25;;;;;23.27;59.79;101292.66;5072548;27;45436;-67
2021/07/23 06:37:20;;;;;;;;;22.00;19.75;;;;;23.28;59.11;101289.00;5071535;28;62873;-67
2021/07/23 06:39:47;;;;;;;;;21.50;18.00;;;;;23.27;59.92;101288.16;5071745;28;45766;-67
2021/07/23 06:42:12;;;;;;;;;20.50;18.00;;;;;23.37;59.46;101288.19;5074501;27;45275;-67
2021/07/23 06:44:38;;;;;;;;;21.50;18.25;;;;;23.47;59.44;101286.41;5070514;27;45271;-67
2021/07/23 06:47:03;;;;;;;;;18.75;16.25;;;;;23.51;59.08;101284.31;5071039;28;60712;-67
2021/07/23 06:49:28;;;;;;;;;21.00;17.75;;;;;23.58;58.90;101280.94;5071891;28;54789;-67
2021/07/23 06:51:54;;;;;;;;;21.50;17.25;;;;;23.67;58.85;101279.28;5072595;28;45364;-67
2021/07/23 06:54:19;;;;;;;;;22.75;17.75;;;;;23.77;58.37;101279.31;5073680;28;56823;-67
2021/07/23 06:56:44;;;;;;;;;26.50;20.00;;;;;23.86;58.88;101270.44;5075911;27;52390;-67
2021/07/23 06:59:10;;;;;;;;;22.25;19.50;;;;;23.94;58.31;101273.25;5075705;28;45370;-67
2021/07/23 07:01:35;;;;;;;;;23.75;20.50;;;;;24.00;58.29;101277.22;5074284;27;45306;-67
2021/07/23 07:04:00;;;;;;;;;23.00;22.25;;;;;24.09;58.68;101281.75;5075673;27;45420;-67
2021/07/23 07:06:25;;;;;;;;;25.00;21.75;;;;;24.25;58.04;101278.53;5076274;27;51542;-67
2021/07/23 07:08:51;;;;;;;;;23.50;22.50;;;;;24.68;57.99;101275.41;5075946;28;45405;-67
2021/07/23 07:11:16;;;;;;;;;21.25;20.25;;;;;25.01;56.47;101270.53;5075633;27;45519;-67
2021/07/23 07:13:42;;;;;;;;;26.00;19.50;;;;;25.05;56.52;101259.31;5075469;27;45425;-67
2021/07/23 07:16:07;;;;;;;;;26.50;21.25;;;;;25.16;56.34;101259.19;5074881;28;45455;-67
2021/07/23 07:18:32;;;;;;;;;18.50;17.50;;;;;25.42;55.79;101261.16;5075887;27;45524;-68
2021/07/23 07:20:58;;;;;;;;;21.75;20.00;;;;;25.60;55.31;101259.38;5077516;27;45411;-67
2021/07/23 07:23:23;;;;;;;;;22.25;18.00;;;;;25.62;55.41;101262.75;5073463;28;47641;-67
2021/07/23 07:25:48;;;;;;;;;30.75;27.75;;;;;25.55;54.70;101253.59;5074694;27;57984;-67
2021/07/23 07:28:14;;;;;;;;;20.75;20.00;;;;;25.60;54.96;101253.13;5075147;28;45439;-67
2021/07/23 07:30:39;;;;;;;;;21.25;19.00;;;;;25.68;55.00;101245.97;5075011;27;45338;-67
2021/07/23 07:33:04;;;;;;;;;22.75;18.25;;;;;25.73;54.57;101253.59;5093124;27;45426;-67
2021/07/23 07:35:30;;;;;;;;;15.50;15.00;;;;;25.81;54.86;101261.81;5075543;27;45442;-67
2021/07/23 07:37:55;;;;;;;;;18.25;17.75;;;;;25.97;54.81;101258.44;5074440;28;45433;-67
2021/07/23 07:40:20;;;;;;;;;22.75;17.75;;;;;26.04;53.96;101267.59;5072254;27;45456;-67
2021/07/23 07:42:46;;;;;;;;;25.00;19.00;;;;;26.17;53.59;101264.53;5075072;28;45474;-67
2021/07/23 07:45:11;;;;;;;;;21.25;19.25;;;;;26.40;53.72;101265.72;5076519;27;46336;-67
2021/07/23 07:47:37;;;;;;;;;19.50;19.00;;;;;26.74;53.28;101273.09;5074326;28;45550;-67
2021/07/23 07:50:03;;;;;;;;;22.75;20.00;;;;;27.16;52.49;101264.28;5074934;28;45468;-67
2021/07/23 07:52:28;;;;;;;;;27.00;18.00;;;;;27.47;52.10;101254.63;5074943;27;45433;-67
2021/07/23 07:54:54;;;;;;;;;23.25;19.50;;;;;27.63;51.63;101253.84;5074652;27;45464;-67
2021/07/23 07:57:19;;;;;;;;;30.50;24.25;;;;;27.68;51.29;101240.69;5076366;27;50526;-67
2021/07/23 07:59:44;;;;;;;;;27.75;24.00;;;;;27.79;50.41;101239.56;5075103;27;45322;-67
2021/07/23 08:02:11;;;;;;;;;25.50;22.75;;;;;27.99;50.71;101257.16;5072999;27;47694;-67
2021/07/23 08:04:38;;;;;;;;;21.50;19.75;;;;;28.26;49.67;101266.78;5074305;27;45496;-68
2021/07/23 08:07:09;;;;;;;;;23.75;21.00;;;;;28.93;49.35;101258.47;5074538;27;45747;-67
2021/07/23 08:09:47;;;;;;;;;22.50;19.25;;;;;30.07;48.25;101257.97;5073892;28;45515;-67
2021/07/23 08:12:12;;;;;;;;;18.75;18.00;;;;;31.55;47.39;101255.47;5074150;27;45385;-68
2021/07/23 08:14:38;;;;;;;;;22.00;20.50;;;;;32.71;44.47;101256.22;5073031;27;63135;-67
2021/07/23 08:17:03;;;;;;;;;23.00;18.00;;;;;33.16;43.05;101249.41;5072318;28;51605;-67
2021/07/23 08:19:28;;;;;;;;;18.75;17.75;;;;;33.04;42.26;101236.53;5072859;27;45659;-67
2021/07/23 08:21:54;;;;;;;;;21.75;20.50;;;;;33.28;42.96;101244.22;5074979;27;45521;-67
2021/07/23 08:24:19;;;;;;;;;22.00;19.75;;;;;33.79;42.71;101241.06;5075278;27;59448;-67
2021/07/23 08:26:44;;;;;;;;;19.25;17.00;;;;;34.50;40.77;101238.63;5074505;28;46612;-67
2021/07/23 08:29:09;;;;;;;;;19.50;17.75;;;;;35.33;40.13;101226.25;5073835;27;45355;-68
2021/07/23 08:31:35;;;;;;;;;17.25;15.00;;;;;36.92;38.59;101228.69;5073887;27;58599;-67
2021/07/23 08:34:00;;;;;;;;;20.25;19.00;;;;;38.82;36.83;101238.13;5074289;28;45551;-67
2021/07/23 08:36:25;;;;;;;;;21.50;19.25;;;;;40.44;33.81;101234.06;5074925;27;46737;-68
2021/07/23 08:38:51;;;;;;;;;16.25;15.50;;;;;42.20;31.79;101232.91;5075128;27;45493;-67
2021/07/23 08:41:16;;;;;;;;;16.75;16.75;;;;;42.93;30.32;101240.56;5072070;27;45376;-68
2021/07/23 08:43:45;;;;;;;;;14.25;12.25;;;;;42.46;29.89;101244.16;5074261;27;45362;-68
2021/07/23 08:46:14;;;;;;;;;15.75;15.75;;;;;41.38;31.56;101238.69;5073853;27;45635;-68
2021/07/23 08:48:39;;;;;;;;;17.25;17.25;;;;;40.47;30.69;101236.34;5074569;27;45492;-68
2021/07/23 08:51:05;;;;;;;;;18.25;15.75;;;;;40.34;31.42;101222.91;5076029;27;45410;-68
2021/07/23 08:53:30;;;;;;;;;17.25;16.25;;;;;40.24;30.17;101231.84;5073612;28;45477;-68
2021/07/23 08:55:55;;;;;;;;;17.00;14.75;;;;;41.14;30.30;101227.06;5073179;27;45255;-68
2021/07/23 08:58:21;;;;;;;;;17.25;15.25;;;;;42.68;29.42;101228.28;5073026;27;45294;-68
2021/07/23 09:00:46;;;;;;;;;18.25;15.75;;;;;44.23;27.50;101228.44;5073994;27;45549;-68
2021/07/23 09:03:11;;;;;;;;;11.00;10.75;;;;;45.78;26.44;101220.03;5075763;27;45376;-68
2021/07/23 09:05:39;;;;;;;;;18.00;15.00;;;;;46.58;25.37;101225.19;5073785;27;45601;-68
2021/07/23 09:08:07;;;;;;;;;18.00;17.25;;;;;46.30;24.34;101219.31;5073702;27;45516;-68
2021/07/23 09:10:34;;;;;;;;;16.50;16.00;;;;;45.58;25.06;101223.81;5073175;27;45510;-68
2021/07/23 09:13:01;;;;;;;;;13.50;12.25;;;;;44.89;25.07;101206.09;5073909;28;46573;-68
2021/07/23 09:15:39;;;;;;;;;16.75;15.00;;;;;43.96;25.84;101218.47;5074055;27;45781;-68
2021/07/23 09:18:06;;;;;;;;;16.00;14.75;;;;;43.18;26.66;101212.22;5074503;28;45315;-68
2021/07/23 09:20:33;;;;;;;;;13.75;13.75;;;;;42.64;27.04;101209.72;5071952;27;45428;-68
2021/07/23 09:23:00;;;;;;;;;15.50;14.25;;;;;42.31;27.42;101208.13;5073308;27;46110;-68
2021/07/23 09:25:34;;;;;;;;;14.00;12.50;;;;;42.08;27.49;101189.97;5072861;27;45392;-68
2021/07/23 09:27:59;;;;;;;;;16.00;15.50;;;;;41.88;27.23;101194.25;5070415;28;45512;-68
2021/07/23 09:30:42;;;;;;;;;16.25;14.75;;;;;41.81;28.10;101192.78;5071994;28;45300;-68
2021/07/23 09:33:11;;;;;;;;;15.25;15.25;;;;;41.81;28.14;101193.63;5075098;28;46472;-68
2021/07/23 09:35:49;;;;;;;;;18.50;18.50;;;;;41.76;27.78;101188.03;5073186;27;45702;-68
2021/07/23 09:38:14;;;;;;;;;17.75;17.00;;;;;41.63;27.80;101180.19;5071952;27;45533;-68
2021/07/23 09:40:42;;;;;;;;;17.50;17.50;;;;;41.52;27.87;101192.22;5073242;27;45565;-68
2021/07/23 09:43:07;;;;;;;;;20.00;15.25;;;;;41.43;27.34;101178.06;5072852;27;45438;-68
2021/07/23 09:45:33;;;;;;;;;15.25;14.25;;;;;41.42;27.90;101180.00;5073113;28;45488;-68
2021/07/23 09:48:11;;;;;;;;;19.25;17.00;;;;;41.31;27.88;101175.44;5074658;27;45445;-68
2021/07/23 09:50:47;;;;;;;;;20.25;16.50;;;;;41.12;28.91;101172.19;5078596;27;45392;-68
2021/07/23 09:53:19;;;;;;;;;18.00;17.25;;;;;40.88;27.69;101160.59;5076594;27;45599;-68
2021/07/23 09:55:47;;;;;;;;;20.75;19.00;;;;;40.44;28.66;101155.03;5072730;27;45657;-68
2021/07/23 09:58:19;;;;;;;;;21.00;20.00;;;;;39.98;28.32;101145.22;5071610;27;45401;-68
2021/07/23 10:00:50;;;;;;;;;17.25;16.50;;;;;39.29;28.95;101139.06;5073226;27;45295;-68
2021/07/23 10:03:17;;;;;;;;;18.50;17.00;;;;;38.92;29.70;101130.34;5071398;28;45555;-68
2021/07/23 10:06:02;;;;;;;;;16.50;16.00;;;;;38.57;29.43;101132.06;5073468;28;45563;-68
2021/07/23 10:08:36;;;;;;;;;18.75;17.50;;;;;38.23;29.79;101119.22;5072536;27;45569;-68
2021/07/23 10:11:03;;;;;;;;;15.25;15.25;;;;;37.80;30.38;101115.72;5073130;28;45504;-68
2021/07/23 10:13:30;;;;;;;;;19.00;18.25;;;;;37.28;30.83;101117.34;5072370;28;45512;-67
2021/07/23 10:15:57;;;;;;;;;16.25;15.75;;;;;37.08;31.52;101099.28;5071145;27;45664;-68
2021/07/23 10:18:23;;;;;;;;;17.25;16.75;;;;;37.23;31.39;101100.78;5074787;27;45474;-68
2021/07/23 10:20:48;;;;;;;;;18.50;18.00;;;;;37.18;31.61;101095.16;5073080;28;45448;-68
2021/07/23 10:23:22;;;;;;;;;18.75;16.75;;;;;36.87;31.42;101086.06;5072181;27;45843;-68
2021/07/23 10:25:49;;;;;;;;;20.25;18.00;;;;;36.63;31.86;101079.63;5072643;27;45640;-68
2021/07/23 10:28:38;;;;;;;;;21.00;19.00;;;;;36.51;32.56;101081.47;5072746;27;45363;-68
2021/07/23 10:31:24;;;;;;;;;18.50;16.25;;;;;36.38;32.02;101065.97;5062618;28;45453;-68
2021/07/23 10:33:51;;;;;;;;;16.25;13.50;;;;;36.14;30.91;101066.91;5060666;28;46569;-68
2021/07/23 10:36:26;;;;;;;;;16.00;14.25;;;;;35.75;31.30;101060.72;5077856;27;45260;-68
2021/07/23 10:39:06;;;;;;;;;15.00;14.00;;;;;35.58;31.38;101057.72;5075385;27;45381;-68
2021/07/23 10:41:33;;;;;;;;;16.75;15.00;;;;;35.60;32.25;101050.09;5075994;27;45531;-68
2021/07/23 10:43:58;;;;;;;;;15.00;13.75;;;;;35.76;32.15;101049.56;5075240;27;48808;-68
2021/07/23 10:46:42;;;;;;;;;14.50;14.50;;;;;35.95;31.35;101052.34;5075896;27;45494;-68
2021/07/23 10:49:07;;;;;;;;;13.00;11.50;;;;;35.98;30.77;101030.03;5076444;28;45464;-68
2021/07/23 10:51:47;;;;;;;;;9.75;9.00;;;;;35.85;30.88;101027.38;5075515;27;45474;-67
2021/07/23 10:54:13;;;;;;;;;15.00;13.50;;;;;35.66;31.39;101021.06;5073580;28;45477;-67
2021/07/23 10:56:56;;;;;;;;;16.25;14.50;;;;;35.57;31.31;101023.25;5074422;27;45745;-67
2021/07/23 10:59:40;;;;;;;;;15.50;13.50;;;;;35.45;31.53;101017.66;5075976;27;45493;-68
2021/07/23 11:02:06;;;;;;;;;15.00;13.50;;;;;35.42;31.68;101015.34;5075705;28;45299;-68
2021/07/23 11:04:33;;;;;;;;;18.50;14.00;;;;;35.42;31.86;101012.59;5075498;27;45552;-68
2021/07/23 11:07:00;;;;;;;;;13.00;12.50;;;;;35.34;31.89;101003.84;5075531;27;45332;-68